sensor_id;sensor_type;location;lat;lon;timestamp;pressure;altitude;pressure_sealevel;temperature;humidity
68366;BME280;55283;51.466;5.478;2023-04-02T00:07:51;100874.28;;;20.74;47.63
68366;BME280;55283;51.466;5.478;2023-04-02T00:15:28;100891.19;;;20.70;47.45
68366;BME280;55283;51.466;5.478;2023-04-02T00:17:53;100889.28;;;20.67;47.76
68366;BME280;55283;51.466;5.478;2023-04-02T00:20:20;100891.97;;;20.71;47.53
68366;BME280;55283;51.466;5.478;2023-04-02T00:22:47;100903.19;;;20.71;47.44
68366;BME280;55283;51.466;5.478;2023-04-02T00:25:13;100903.19;;;20.71;47.71
68366;BME280;55283;51.466;5.478;2023-04-02T00:27:39;100903.97;;;20.71;47.41
68366;BME280;55283;51.466;5.478;2023-04-02T00:30:05;100903.97;;;20.71;47.55
68366;BME280;55283;51.466;5.478;2023-04-02T00:32:33;100914.38;;;20.71;47.43
68366;BME280;55283;51.466;5.478;2023-04-02T00:35:00;100920.00;;;20.71;47.59
68366;BME280;55283;51.466;5.478;2023-04-02T00:37:27;100911.94;;;20.73;47.43
68366;BME280;55283;51.466;5.478;2023-04-02T00:40:26;100915.63;;;20.70;47.44
68366;BME280;55283;51.466;5.478;2023-04-02T00:42:57;100933.09;;;20.74;47.25
68366;BME280;55283;51.466;5.478;2023-04-02T00:45:26;100931.56;;;20.73;47.30
68366;BME280;55283;51.466;5.478;2023-04-02T00:47:54;100936.13;;;20.67;47.50
68366;BME280;55283;51.466;5.478;2023-04-02T00:52:53;100931.03;;;20.62;47.45
68366;BME280;55283;51.466;5.478;2023-04-02T00:55:29;100946.44;;;20.70;47.56
68366;BME280;55283;51.466;5.478;2023-04-02T00:57:57;100942.59;;;20.64;47.44
68366;BME280;55283;51.466;5.478;2023-04-02T01:05:37;100966.47;;;20.68;47.45
68366;BME280;55283;51.466;5.478;2023-04-02T01:08:10;100977.25;;;20.70;47.32
68366;BME280;55283;51.466;5.478;2023-04-02T01:14:10;100992.13;;;20.67;47.36
68366;BME280;55283;51.466;5.478;2023-04-02T01:16:56;100995.38;;;20.65;47.50
68366;BME280;55283;51.466;5.478;2023-04-02T01:24:30;100995.47;;;20.62;47.47
68366;BME280;55283;51.466;5.478;2023-04-02T01:27:01;100992.25;;;20.63;47.25
68366;BME280;55283;51.466;5.478;2023-04-02T01:29:32;100999.75;;;20.66;47.47
68366;BME280;55283;51.466;5.478;2023-04-02T01:32:06;101000.97;;;20.65;47.23
68366;BME280;55283;51.466;5.478;2023-04-02T01:34:32;101001.78;;;20.66;47.44
68366;BME280;55283;51.466;5.478;2023-04-02T01:45:26;101015.84;;;20.62;47.39
68366;BME280;55283;51.466;5.478;2023-04-02T01:47:53;101038.97;;;20.66;47.26
68366;BME280;55283;51.466;5.478;2023-04-02T01:52:45;101042.97;;;20.65;47.24
68366;BME280;55283;51.466;5.478;2023-04-02T01:55:12;101050.59;;;20.65;47.32
68366;BME280;55283;51.466;5.478;2023-04-02T01:57:41;101036.44;;;20.55;47.21
68366;BME280;55283;51.466;5.478;2023-04-02T02:00:11;101051.47;;;20.62;47.38
68366;BME280;55283;51.466;5.478;2023-04-02T02:02:39;101053.84;;;20.63;47.38
68366;BME280;55283;51.466;5.478;2023-04-02T02:05:11;101071.44;;;20.64;47.12
68366;BME280;55283;51.466;5.478;2023-04-02T02:07:37;101071.00;;;20.65;47.27
68366;BME280;55283;51.466;5.478;2023-04-02T02:10:04;101073.47;;;20.63;47.21
68366;BME280;55283;51.466;5.478;2023-04-02T02:12:29;101065.84;;;20.64;47.46
68366;BME280;55283;51.466;5.478;2023-04-02T02:14:56;101076.25;;;20.63;47.35
68366;BME280;55283;51.466;5.478;2023-04-02T02:17:29;101088.25;;;20.64;47.41
68366;BME280;55283;51.466;5.478;2023-04-02T02:19:59;101087.47;;;20.63;47.15
68366;BME280;55283;51.466;5.478;2023-04-02T02:25:15;101101.13;;;20.61;47.38
68366;BME280;55283;51.466;5.478;2023-04-02T02:27:57;101104.28;;;20.63;47.19
68366;BME280;55283;51.466;5.478;2023-04-02T02:30:33;101100.34;;;20.61;47.34
68366;BME280;55283;51.466;5.478;2023-04-02T02:33:19;101106.72;;;20.61;47.20
68366;BME280;55283;51.466;5.478;2023-04-02T02:35:57;101120.72;;;20.61;47.31
68366;BME280;55283;51.466;5.478;2023-04-02T02:41:19;101117.28;;;20.53;47.21
68366;BME280;55283;51.466;5.478;2023-04-02T02:46:35;101125.00;;;20.49;47.08
68366;BME280;55283;51.466;5.478;2023-04-02T02:49:03;101146.78;;;20.58;47.18
68366;BME280;55283;51.466;5.478;2023-04-02T02:51:39;101145.56;;;20.59;46.93
68366;BME280;55283;51.466;5.478;2023-04-02T02:54:08;101156.34;;;20.61;47.16
68366;BME280;55283;51.466;5.478;2023-04-02T02:56:35;101153.97;;;20.59;47.12
68366;BME280;55283;51.466;5.478;2023-04-02T02:59:05;101151.53;;;20.61;47.30
68366;BME280;55283;51.466;5.478;2023-04-02T03:01:33;101157.72;;;20.52;47.28
68366;BME280;55283;51.466;5.478;2023-04-02T03:03:59;101164.38;;;20.58;47.18
68366;BME280;55283;51.466;5.478;2023-04-02T03:06:25;101171.91;;;20.62;47.13
68366;BME280;55283;51.466;5.478;2023-04-02T03:11:53;101177.31;;;20.52;47.02
68366;BME280;55283;51.466;5.478;2023-04-02T03:14:37;101187.56;;;20.59;46.99
68366;BME280;55283;51.466;5.478;2023-04-02T03:17:11;101184.34;;;20.61;47.04
68366;BME280;55283;51.466;5.478;2023-04-02T03:19:46;101195.97;;;20.59;47.19
68366;BME280;55283;51.466;5.478;2023-04-02T03:22:23;101191.75;;;20.51;47.12
68366;BME280;55283;51.466;5.478;2023-04-02T03:25:20;101215.59;;;20.59;47.15
68366;BME280;55283;51.466;5.478;2023-04-02T03:27:45;101210.78;;;20.60;47.19
68366;BME280;55283;51.466;5.478;2023-04-02T03:30:39;101216.53;;;20.52;47.11
68366;BME280;55283;51.466;5.478;2023-04-02T03:33:16;101229.16;;;20.61;47.12
68366;BME280;55283;51.466;5.478;2023-04-02T03:36:03;101232.06;;;20.57;47.06
68366;BME280;55283;51.466;5.478;2023-04-02T03:38:43;101253.22;;;20.58;47.24
68366;BME280;55283;51.466;5.478;2023-04-02T03:41:16;101229.38;;;20.50;47.02
68366;BME280;55283;51.466;5.478;2023-04-02T03:43:46;101252.88;;;20.56;47.20
68366;BME280;55283;51.466;5.478;2023-04-02T03:46:36;101249.44;;;20.48;47.18
68366;BME280;55283;51.466;5.478;2023-04-02T03:52:19;101271.69;;;20.55;47.13
68366;BME280;55283;51.466;5.478;2023-04-02T03:54:46;101277.38;;;20.52;47.02
68366;BME280;55283;51.466;5.478;2023-04-02T03:57:32;101283.31;;;20.54;47.27
68366;BME280;55283;51.466;5.478;2023-04-02T04:00:24;101282.19;;;20.51;47.01
68366;BME280;55283;51.466;5.478;2023-04-02T04:03:02;101293.38;;;20.51;47.19
68366;BME280;55283;51.466;5.478;2023-04-02T04:05:34;101287.41;;;20.49;47.13
68366;BME280;55283;51.466;5.478;2023-04-02T04:08:06;101294.97;;;20.52;47.14
68366;BME280;55283;51.466;5.478;2023-04-02T04:10:36;101299.00;;;20.51;47.11
68366;BME280;55283;51.466;5.478;2023-04-02T04:13:08;101312.53;;;20.53;47.30
68366;BME280;55283;51.466;5.478;2023-04-02T04:15:40;101316.13;;;20.53;47.08
68366;BME280;55283;51.466;5.478;2023-04-02T04:18:16;101314.13;;;20.54;46.84
68366;BME280;55283;51.466;5.478;2023-04-02T04:20:56;101320.94;;;20.53;46.91
68366;BME280;55283;51.466;5.478;2023-04-02T04:23:35;101334.88;;;20.56;46.86
68366;BME280;55283;51.466;5.478;2023-04-02T04:31:29;101359.75;;;20.54;46.79
68366;BME280;55283;51.466;5.478;2023-04-02T04:33:59;101355.34;;;20.53;46.89
68366;BME280;55283;51.466;5.478;2023-04-02T04:36:38;101357.50;;;20.46;47.12
68366;BME280;55283;51.466;5.478;2023-04-02T04:39:11;101373.38;;;20.52;47.08
68366;BME280;55283;51.466;5.478;2023-04-02T04:41:40;101366.25;;;20.48;46.93
68366;BME280;55283;51.466;5.478;2023-04-02T04:44:17;101378.25;;;20.48;46.97
68366;BME280;55283;51.466;5.478;2023-04-02T04:47:01;101388.53;;;20.55;46.93
68366;BME280;55283;51.466;5.478;2023-04-02T04:49:31;101393.34;;;20.54;46.95
68366;BME280;55283;51.466;5.478;2023-04-02T04:52:08;101395.34;;;20.54;46.82
68366;BME280;55283;51.466;5.478;2023-04-02T04:54:36;101398.13;;;20.54;46.82
68366;BME280;55283;51.466;5.478;2023-04-02T04:57:04;101402.94;;;20.53;47.01
68366;BME280;55283;51.466;5.478;2023-04-02T04:59:55;101416.63;;;20.51;47.06
68366;BME280;55283;51.466;5.478;2023-04-02T05:02:25;101413.44;;;20.49;46.86
68366;BME280;55283;51.466;5.478;2023-04-02T05:04:53;101406.75;;;20.43;47.20
68366;BME280;55283;51.466;5.478;2023-04-02T05:07:24;101412.34;;;20.43;47.13
68366;BME280;55283;51.466;5.478;2023-04-02T05:09:59;101434.63;;;20.50;47.13
68366;BME280;55283;51.466;5.478;2023-04-02T05:12:51;101431.16;;;20.43;47.08
68366;BME280;55283;51.466;5.478;2023-04-02T05:18:25;101453.44;;;20.50;46.97
68366;BME280;55283;51.466;5.478;2023-04-02T05:21:05;101461.47;;;20.48;46.85
68366;BME280;55283;51.466;5.478;2023-04-02T05:23:49;101461.53;;;20.44;46.88
68366;BME280;55283;51.466;5.478;2023-04-02T05:26:28;101460.69;;;20.47;46.71
68366;BME280;55283;51.466;5.478;2023-04-02T05:28:59;101468.28;;;20.47;47.02
68366;BME280;55283;51.466;5.478;2023-04-02T05:31:34;101469.44;;;20.49;47.43
68366;BME280;55283;51.466;5.478;2023-04-02T05:34:02;101461.91;;;20.46;47.33
68366;BME280;55283;51.466;5.478;2023-04-02T05:36:29;101485.94;;;20.44;47.15
68366;BME280;55283;51.466;5.478;2023-04-02T05:38:56;101485.53;;;20.45;47.39
68366;BME280;55283;51.466;5.478;2023-04-02T05:41:26;101490.84;;;20.36;47.49
68366;BME280;55283;51.466;5.478;2023-04-02T05:46:32;101497.03;;;20.24;46.20
68366;BME280;55283;51.466;5.478;2023-04-02T05:48:58;101512.56;;;20.28;46.25
68366;BME280;55283;51.466;5.478;2023-04-02T05:51:38;101502.78;;;20.13;45.92
68366;BME280;55283;51.466;5.478;2023-04-02T05:54:21;101517.16;;;20.15;45.93
68366;BME280;55283;51.466;5.478;2023-04-02T05:56:54;101515.75;;;20.03;45.97
68366;BME280;55283;51.466;5.478;2023-04-02T05:59:28;101536.91;;;20.04;45.79
68366;BME280;55283;51.466;5.478;2023-04-02T06:02:29;101538.50;;;20.05;45.39
68366;BME280;55283;51.466;5.478;2023-04-02T06:04:58;101547.84;;;19.95;45.53
68366;BME280;55283;51.466;5.478;2023-04-02T06:07:40;101561.44;;;19.97;45.39
68366;BME280;55283;51.466;5.478;2023-04-02T06:13:30;101569.94;;;20.17;44.31
68366;BME280;55283;51.466;5.478;2023-04-02T06:15:55;101565.28;;;20.06;44.34
68366;BME280;55283;51.466;5.478;2023-04-02T06:18:26;101565.66;;;20.08;44.46
68366;BME280;55283;51.466;5.478;2023-04-02T06:20:53;101579.19;;;20.13;44.42
68366;BME280;55283;51.466;5.478;2023-04-02T06:26:02;101590.53;;;20.30;43.71
68366;BME280;55283;51.466;5.478;2023-04-02T06:28:45;101586.88;;;20.33;43.85
68366;BME280;55283;51.466;5.478;2023-04-02T06:33:53;101603.69;;;20.33;44.18
68366;BME280;55283;51.466;5.478;2023-04-02T06:36:20;101612.44;;;20.39;43.89
68366;BME280;55283;51.466;5.478;2023-04-02T06:38:47;101604.66;;;20.23;41.19
68366;BME280;55283;51.466;5.478;2023-04-02T06:41:22;101626.59;;;20.24;42.19
68366;BME280;55283;51.466;5.478;2023-04-02T06:43:57;101626.66;;;20.21;43.62
68366;BME280;55283;51.466;5.478;2023-04-02T06:49:31;101638.69;;;19.87;37.64
68366;BME280;55283;51.466;5.478;2023-04-02T06:52:00;101641.28;;;19.71;36.67
68366;BME280;55283;51.466;5.478;2023-04-02T06:54:28;101634.63;;;19.57;36.87
68366;BME280;55283;51.466;5.478;2023-04-02T06:56:54;101659.44;;;19.52;36.59
68366;BME280;55283;51.466;5.478;2023-04-02T06:59:21;101660.59;;;19.54;37.90
68366;BME280;55283;51.466;5.478;2023-04-02T07:01:59;101649.16;;;19.41;39.61
68366;BME280;55283;51.466;5.478;2023-04-02T07:04:28;101664.59;;;19.57;40.19
68366;BME280;55283;51.466;5.478;2023-04-02T07:06:53;101668.56;;;19.59;40.20
68366;BME280;55283;51.466;5.478;2023-04-02T07:09:19;101684.81;;;19.72;40.60
68366;BME280;55283;51.466;5.478;2023-04-02T07:11:44;101692.78;;;19.77;40.63
68366;BME280;55283;51.466;5.478;2023-04-02T07:14:13;101692.31;;;19.82;40.71
68366;BME280;55283;51.466;5.478;2023-04-02T07:16:40;101709.44;;;19.87;41.13
68366;BME280;55283;51.466;5.478;2023-04-02T07:19:16;101712.75;;;19.75;41.39
68366;BME280;55283;51.466;5.478;2023-04-02T07:21:42;101725.50;;;19.80;41.97
68366;BME280;55283;51.466;5.478;2023-04-02T07:24:08;101721.50;;;19.81;41.80
68366;BME280;55283;51.466;5.478;2023-04-02T07:26:33;101710.69;;;19.83;42.12
68366;BME280;55283;51.466;5.478;2023-04-02T07:28:58;101723.41;;;19.91;42.09
68366;BME280;55283;51.466;5.478;2023-04-02T07:31:28;101729.38;;;19.89;41.98
68366;BME280;55283;51.466;5.478;2023-04-02T07:33:56;101738.56;;;19.94;42.15
68366;BME280;55283;51.466;5.478;2023-04-02T07:36:24;101739.72;;;19.96;42.37
68366;BME280;55283;51.466;5.478;2023-04-02T07:38:50;101746.16;;;19.93;42.34
68366;BME280;55283;51.466;5.478;2023-04-02T07:41:16;101757.38;;;19.93;42.34
68366;BME280;55283;51.466;5.478;2023-04-02T07:43:42;101752.56;;;19.94;42.42
68366;BME280;55283;51.466;5.478;2023-04-02T07:46:09;101758.94;;;19.94;42.61
68366;BME280;55283;51.466;5.478;2023-04-02T07:48:35;101760.50;;;19.95;42.55
68366;BME280;55283;51.466;5.478;2023-04-02T07:51:00;101759.72;;;19.95;42.82
68366;BME280;55283;51.466;5.478;2023-04-02T07:53:35;101761.72;;;19.94;43.08
68366;BME280;55283;51.466;5.478;2023-04-02T07:56:04;101768.50;;;19.97;42.80
68366;BME280;55283;51.466;5.478;2023-04-02T07:58:31;101776.47;;;20.02;42.99
68366;BME280;55283;51.466;5.478;2023-04-02T08:00:57;101765.31;;;19.95;43.06
68366;BME280;55283;51.466;5.478;2023-04-02T08:03:23;101768.56;;;19.93;43.02
68366;BME280;55283;51.466;5.478;2023-04-02T08:05:56;101784.47;;;20.00;43.30
68366;BME280;55283;51.466;5.478;2023-04-02T08:08:23;101800.09;;;19.97;43.31
68366;BME280;55283;51.466;5.478;2023-04-02T08:10:49;101793.66;;;20.00;43.25
68366;BME280;55283;51.466;5.478;2023-04-02T08:13:16;101813.63;;;20.02;43.26
68366;BME280;55283;51.466;5.478;2023-04-02T08:15:42;101784.13;;;19.94;43.43
68366;BME280;55283;51.466;5.478;2023-04-02T08:18:08;101814.00;;;20.04;43.42
68366;BME280;55283;51.466;5.478;2023-04-02T08:20:34;101810.94;;;19.92;43.41
68366;BME280;55283;51.466;5.478;2023-04-02T08:22:59;101814.88;;;19.98;43.79
68366;BME280;55283;51.466;5.478;2023-04-02T08:25:25;101822.91;;;19.92;43.94
68366;BME280;55283;51.466;5.478;2023-04-02T08:27:51;101826.06;;;19.98;43.98
68366;BME280;55283;51.466;5.478;2023-04-02T08:30:17;101826.03;;;20.01;43.66
68366;BME280;55283;51.466;5.478;2023-04-02T08:32:43;101838.81;;;20.02;43.83
68366;BME280;55283;51.466;5.478;2023-04-02T08:35:11;101835.56;;;20.07;44.17
68366;BME280;55283;51.466;5.478;2023-04-02T08:37:37;101846.78;;;20.04;44.17
68366;BME280;55283;51.466;5.478;2023-04-02T08:40:03;101846.81;;;20.00;44.14
68366;BME280;55283;51.466;5.478;2023-04-02T08:42:38;101856.38;;;20.06;44.20
68366;BME280;55283;51.466;5.478;2023-04-02T08:47:49;101871.19;;;20.03;44.10
68366;BME280;55283;51.466;5.478;2023-04-02T08:52:47;101873.59;;;20.05;44.23
68366;BME280;55283;51.466;5.478;2023-04-02T08:55:35;101886.41;;;20.02;44.17
68366;BME280;55283;51.466;5.478;2023-04-02T09:01:02;101899.13;;;20.07;44.22
68366;BME280;55283;51.466;5.478;2023-04-02T09:03:34;101903.56;;;20.08;44.27
68366;BME280;55283;51.466;5.478;2023-04-02T09:06:03;101898.34;;;20.06;44.29
68366;BME280;55283;51.466;5.478;2023-04-02T09:08:32;101920.34;;;20.08;44.41
68366;BME280;55283;51.466;5.478;2023-04-02T09:11:26;101903.59;;;20.01;44.33
68366;BME280;55283;51.466;5.478;2023-04-02T09:13:58;101919.16;;;20.05;44.09
68366;BME280;55283;51.466;5.478;2023-04-02T09:16:40;101929.94;;;20.07;44.46
68366;BME280;55283;51.466;5.478;2023-04-02T09:19:24;101929.94;;;20.07;44.42
68366;BME280;55283;51.466;5.478;2023-04-02T09:22:20;101931.09;;;20.09;44.62
68366;BME280;55283;51.466;5.478;2023-04-02T09:25:01;101940.28;;;20.10;44.26
68366;BME280;55283;51.466;5.478;2023-04-02T09:27:32;101942.34;;;20.06;44.62
68366;BME280;55283;51.466;5.478;2023-04-02T09:30:01;101951.56;;;20.03;44.99
68366;BME280;55283;51.466;5.478;2023-04-02T09:32:50;101952.34;;;20.03;44.96
68366;BME280;55283;51.466;5.478;2023-04-02T09:35:24;101954.00;;;19.97;45.21
68366;BME280;55283;51.466;5.478;2023-04-02T09:43:22;101971.16;;;20.03;45.13
68366;BME280;55283;51.466;5.478;2023-04-02T09:46:15;101983.97;;;20.00;45.27
68366;BME280;55283;51.466;5.478;2023-04-02T09:48:54;101974.00;;;19.96;45.06
68366;BME280;55283;51.466;5.478;2023-04-02T09:51:30;101979.94;;;20.01;45.03
68366;BME280;55283;51.466;5.478;2023-04-02T09:56:27;101993.59;;;19.99;44.81
68366;BME280;55283;51.466;5.478;2023-04-02T10:04:44;102017.88;;;20.09;45.12
68366;BME280;55283;51.466;5.478;2023-04-02T10:10:00;102011.50;;;20.09;45.19
68366;BME280;55283;51.466;5.478;2023-04-02T10:12:29;102014.28;;;20.09;45.10
68366;BME280;55283;51.466;5.478;2023-04-02T10:14:58;102009.91;;;20.08;45.17
68366;BME280;55283;51.466;5.478;2023-04-02T10:17:31;102029.09;;;20.09;45.21
68366;BME280;55283;51.466;5.478;2023-04-02T10:20:23;102024.66;;;20.12;45.24
68366;BME280;55283;51.466;5.478;2023-04-02T10:22:51;102025.88;;;20.07;45.22
68366;BME280;55283;51.466;5.478;2023-04-02T10:25:18;102028.28;;;20.09;45.35
68366;BME280;55283;51.466;5.478;2023-04-02T10:30:32;102045.41;;;20.18;45.25
68366;BME280;55283;51.466;5.478;2023-04-02T10:33:17;102051.88;;;20.11;45.28
68366;BME280;55283;51.466;5.478;2023-04-02T10:36:01;102053.09;;;20.07;45.48
68366;BME280;55283;51.466;5.478;2023-04-02T10:38:40;102063.88;;;20.08;45.95
68366;BME280;55283;51.466;5.478;2023-04-02T10:44:30;102070.22;;;20.20;45.67
68366;BME280;55283;51.466;5.478;2023-04-02T10:47:27;102072.16;;;20.26;45.31
68366;BME280;55283;51.466;5.478;2023-04-02T10:52:30;102081.28;;;20.41;45.55
68366;BME280;55283;51.466;5.478;2023-04-02T10:55:03;102091.28;;;20.46;45.51
68366;BME280;55283;51.466;5.478;2023-04-02T10:57:35;102084.41;;;20.50;46.25
68366;BME280;55283;51.466;5.478;2023-04-02T11:05:34;102094.38;;;20.58;46.54
68366;BME280;55283;51.466;5.478;2023-04-02T11:08:17;102081.56;;;20.57;46.45
68366;BME280;55283;51.466;5.478;2023-04-02T11:10:50;102098.72;;;20.67;46.45
68366;BME280;55283;51.466;5.478;2023-04-02T11:15:55;102115.81;;;20.79;46.02
68366;BME280;55283;51.466;5.478;2023-04-02T11:18:39;102105.72;;;20.89;45.80
68366;BME280;55283;51.466;5.478;2023-04-02T11:21:05;102112.13;;;20.90;46.09
68366;BME280;55283;51.466;5.478;2023-04-02T11:23:34;102128.03;;;21.00;46.11
68366;BME280;55283;51.466;5.478;2023-04-02T11:29:18;102134.75;;;21.13;45.81
68366;BME280;55283;51.466;5.478;2023-04-02T11:31:46;102137.97;;;21.15;45.98
68366;BME280;55283;51.466;5.478;2023-04-02T11:36:58;102134.28;;;21.22;45.98
68366;BME280;55283;51.466;5.478;2023-04-02T11:39:52;102144.22;;;21.30;45.82
68366;BME280;55283;51.466;5.478;2023-04-02T11:42:25;102143.78;;;21.32;45.98
68366;BME280;55283;51.466;5.478;2023-04-02T11:44:55;102145.75;;;21.35;46.43
68366;BME280;55283;51.466;5.478;2023-04-02T11:47:24;102154.13;;;21.38;46.63
68366;BME280;55283;51.466;5.478;2023-04-02T11:52:22;102157.66;;;21.46;46.40
68366;BME280;55283;51.466;5.478;2023-04-02T12:03:22;102173.25;;;21.51;47.44
68366;BME280;55283;51.466;5.478;2023-04-02T12:06:00;102173.66;;;21.49;47.45
68366;BME280;55283;51.466;5.478;2023-04-02T12:11:36;102183.31;;;21.48;46.74
68366;BME280;55283;51.466;5.478;2023-04-02T12:14:42;102192.47;;;21.52;46.53
68366;BME280;55283;51.466;5.478;2023-04-02T12:19:53;102202.59;;;21.42;47.23
68366;BME280;55283;51.466;5.478;2023-04-02T12:22:23;102208.50;;;21.52;46.37
68366;BME280;55283;51.466;5.478;2023-04-02T12:24:52;102210.13;;;21.49;46.41
68366;BME280;55283;51.466;5.478;2023-04-02T12:27:20;102220.97;;;21.51;45.86
68366;BME280;55283;51.466;5.478;2023-04-02T12:29:53;102203.38;;;21.43;45.83
68366;BME280;55283;51.466;5.478;2023-04-02T12:32:29;102222.94;;;21.54;45.86
68366;BME280;55283;51.466;5.478;2023-04-02T12:34:56;102218.16;;;21.51;45.93
68366;BME280;55283;51.466;5.478;2023-04-02T12:37:26;102224.59;;;21.47;45.82
68366;BME280;55283;51.466;5.478;2023-04-02T12:39:58;102222.16;;;21.50;46.46
68366;BME280;55283;51.466;5.478;2023-04-02T12:44:52;102229.03;;;21.45;45.87
68366;BME280;55283;51.466;5.478;2023-04-02T12:47:18;102239.38;;;21.52;46.64
68366;BME280;55283;51.466;5.478;2023-04-02T12:49:45;102243.00;;;21.48;46.07
68366;BME280;55283;51.466;5.478;2023-04-02T12:52:16;102245.03;;;21.48;45.88
68366;BME280;55283;51.466;5.478;2023-04-02T12:54:48;102241.06;;;21.42;45.76
68366;BME280;55283;51.466;5.478;2023-04-02T12:59:55;102243.09;;;21.41;45.91
68366;BME280;55283;51.466;5.478;2023-04-02T13:02:27;102233.88;;;21.37;46.18
68366;BME280;55283;51.466;5.478;2023-04-02T13:04:57;102237.84;;;21.43;46.19
68366;BME280;55283;51.466;5.478;2023-04-02T13:07:29;102250.69;;;21.44;46.10
68366;BME280;55283;51.466;5.478;2023-04-02T13:09:58;102255.47;;;21.47;46.11
68366;BME280;55283;51.466;5.478;2023-04-02T13:12:36;102261.13;;;21.40;46.13
68366;BME280;55283;51.466;5.478;2023-04-02T13:15:30;102263.09;;;21.43;45.97
68366;BME280;55283;51.466;5.478;2023-04-02T13:20:38;102261.13;;;21.40;46.19
68366;BME280;55283;51.466;5.478;2023-04-02T13:23:31;102260.34;;;21.36;46.36
68366;BME280;55283;51.466;5.478;2023-04-02T13:26:13;102269.13;;;21.38;46.55
68366;BME280;55283;51.466;5.478;2023-04-02T13:28:40;102252.34;;;21.35;46.48
68366;BME280;55283;51.466;5.478;2023-04-02T13:31:13;102267.59;;;21.34;46.70
68366;BME280;55283;51.466;5.478;2023-04-02T13:33:39;102254.75;;;21.36;46.68
68366;BME280;55283;51.466;5.478;2023-04-02T13:36:05;102257.13;;;21.38;46.44
68366;BME280;55283;51.466;5.478;2023-04-02T13:38:30;102253.97;;;21.36;46.59
68366;BME280;55283;51.466;5.478;2023-04-02T13:40:56;102253.13;;;21.35;46.54
68366;BME280;55283;51.466;5.478;2023-04-02T13:43:21;102261.13;;;21.40;45.99
68366;BME280;55283;51.466;5.478;2023-04-02T13:45:51;102258.69;;;21.42;46.23
68366;BME280;55283;51.466;5.478;2023-04-02T13:48:18;102272.28;;;21.47;46.16
68366;BME280;55283;51.466;5.478;2023-04-02T13:50:44;102259.09;;;21.44;46.21
68366;BME280;55283;51.466;5.478;2023-04-02T13:53:22;102270.69;;;21.46;46.60
68366;BME280;55283;51.466;5.478;2023-04-02T13:55:49;102273.88;;;21.48;46.22
68366;BME280;55283;51.466;5.478;2023-04-02T13:58:16;102272.28;;;21.47;46.06
68366;BME280;55283;51.466;5.478;2023-04-02T14:00:43;102272.28;;;21.47;46.06
68366;BME280;55283;51.466;5.478;2023-04-02T14:03:13;102285.06;;;21.52;45.83
68366;BME280;55283;51.466;5.478;2023-04-02T14:14:14;102261.06;;;21.47;46.13
68366;BME280;55283;51.466;5.478;2023-04-02T14:16:54;102275.81;;;21.55;46.16
68366;BME280;55283;51.466;5.478;2023-04-02T14:20:23;102293.81;;;21.58;46.17
68366;BME280;55283;51.466;5.478;2023-04-02T14:22:40;102275.44;;;21.53;46.56
68366;BME280;55283;51.466;5.478;2023-04-02T14:25:30;102287.03;;;21.55;46.35
68366;BME280;55283;51.466;5.478;2023-04-02T14:35:43;102298.72;;;21.50;46.05
68366;BME280;55283;51.466;5.478;2023-04-02T14:41:21;102291.53;;;21.45;46.13
68366;BME280;55283;51.466;5.478;2023-04-02T14:44:03;102296.31;;;21.48;46.18
68366;BME280;55283;51.466;5.478;2023-04-02T14:46:31;102296.75;;;21.43;46.58
68366;BME280;55283;51.466;5.478;2023-04-02T14:49:05;102298.75;;;21.43;47.00
68366;BME280;55283;51.466;5.478;2023-04-02T14:52:01;102292.00;;;21.37;48.01
68366;BME280;55283;51.466;5.478;2023-04-02T14:54:59;102308.41;;;21.42;47.36
68366;BME280;55283;51.466;5.478;2023-04-02T14:57:31;102304.69;;;21.52;48.09
68366;BME280;55283;51.466;5.478;2023-04-02T15:02:45;102301.22;;;21.37;47.27
68366;BME280;55283;51.466;5.478;2023-04-02T15:05:48;102316.50;;;21.33;47.54
68366;BME280;55283;51.466;5.478;2023-04-02T15:10:57;102320.03;;;21.40;47.58
68366;BME280;55283;51.466;5.478;2023-04-02T15:13:32;102330.09;;;21.34;47.67
68366;BME280;55283;51.466;5.478;2023-04-02T15:18:34;102326.09;;;21.32;47.73
68366;BME280;55283;51.466;5.478;2023-04-02T15:24:07;102310.84;;;21.36;47.88
68366;BME280;55283;51.466;5.478;2023-04-02T15:26:38;102322.81;;;21.40;48.06
68366;BME280;55283;51.466;5.478;2023-04-02T15:31:44;102319.63;;;21.38;47.94
68366;BME280;55283;51.466;5.478;2023-04-02T15:34:22;102326.81;;;21.43;48.00
68366;BME280;55283;51.466;5.478;2023-04-02T15:44:24;102334.81;;;21.48;47.86
68366;BME280;55283;51.466;5.478;2023-04-02T16:00:10;102337.25;;;21.42;48.05
68366;BME280;55283;51.466;5.478;2023-04-02T16:02:45;102342.81;;;21.46;49.93
68366;BME280;55283;51.466;5.478;2023-04-02T16:08:04;102350.78;;;21.55;48.51
68366;BME280;55283;51.466;5.478;2023-04-02T16:10:38;102335.63;;;21.45;48.05
68366;BME280;55283;51.466;5.478;2023-04-02T16:13:17;102351.59;;;21.52;48.21
68366;BME280;55283;51.466;5.478;2023-04-02T16:15:57;102342.06;;;21.38;48.37
68366;BME280;55283;51.466;5.478;2023-04-02T16:18:35;102366.06;;;21.46;48.83
68366;BME280;55283;51.466;5.478;2023-04-02T16:21:02;102358.88;;;21.45;48.18
68366;BME280;55283;51.466;5.478;2023-04-02T16:23:33;102367.69;;;21.47;48.19
68366;BME280;55283;51.466;5.478;2023-04-02T16:26:40;102375.22;;;21.54;48.09
68366;BME280;55283;51.466;5.478;2023-04-02T16:34:32;102382.09;;;21.46;48.39
68366;BME280;55283;51.466;5.478;2023-04-02T16:43:35;102393.66;;;21.55;48.15
68366;BME280;55283;51.466;5.478;2023-04-02T16:46:32;102404.16;;;21.47;48.33
68366;BME280;55283;51.466;5.478;2023-04-02T16:51:50;102388.59;;;21.32;48.44
68366;BME280;55283;51.466;5.478;2023-04-02T16:54:24;102412.56;;;21.44;48.58
68366;BME280;55283;51.466;5.478;2023-04-02T16:57:15;102415.81;;;21.42;48.43
68366;BME280;55283;51.466;5.478;2023-04-02T17:02:53;102421.44;;;21.39;48.45